Kyokusho Maru — JL6605 — position and weather

sailwx.info

Track history (hours):
 
Tides and Currents Weather Stations Pressure Air Temp Water Temp Dewpoint Dewpoint Depression Visibility Wind Speed Wind Dir Waves Ship Positions

Kyokusho Maru

Last reported at 2016-May-24 10:03 UTC. Time now 2016-May-24 21:32 UTC.
Position N 34°37' E 134°56'.

Length 77 m; draft 5.4 m.

Type: Tanker. MMSI: 431501667.

Date/timePositionNaut miles runAvg speedWind from/ knotsBaromVisibWave heightAir tempDewpointWater temp
2016-May-24 10:03N 34°37' E 134°56'5 9.9
2016-May-24 09:33N 34°37' E 135°02'1010.0
2016-May-24 08:33N 34°36' E 135°14'9 9.2
2016-May-24 07:33N 34°36' E 135°25'2 1.6
2016-May-24 06:33N 34°34' E 135°26'0 0.0
2016-May-24 01:11N 34°34' E 135°26'1 1.7
2016-May-24 00:33N 34°35' E 135°25'5 5.3
2016-May-23 23:32N 34°36' E 135°19'0 0.0
2016-May-23 22:26N 34°36' E 135°19'0 0.0
2016-May-23 21:32N 34°36' E 135°19'0 0.0
2016-May-23 20:32N 34°36' E 135°19'0 0.1
2016-May-23 19:32N 34°36' E 135°19'0 0.0
2016-May-23 18:32N 34°36' E 135°19'0 0.0
2016-May-23 17:26N 34°36' E 135°19'0 0.0
2016-May-23 16:32N 34°36' E 135°19'0 0.0
2016-May-23 14:14N 34°36' E 135°19'0 0.0
2016-May-23 13:08N 34°36' E 135°19'0 0.0
2016-May-23 12:32N 34°36' E 135°19'0 0.0
2016-May-23 11:26N 34°36' E 135°19'0 0.0
2016-May-23 10:14N 34°36' E 135°19'0 0.0
2016-May-23 09:14N 34°36' E 135°19'0 0.0
2016-May-23 08:33N 34°36' E 135°19'2 1.3
2016-May-23 07:17N 34°35' E 135°18'1 1.4
2016-May-23 06:33N 34°35' E 135°16'1211.6
2016-May-23 05:33N 34°36' E 135°02'  
Track history (hours):
 
Tides and Currents Weather Stations Pressure Air Temp Water Temp Dewpoint Dewpoint Depression Visibility Wind Speed Wind Dir Waves Ship Positions

Kyokusho Maru

Last reported at 2016-May-24 10:03 UTC. Time now 2016-May-24 21:32 UTC.
Position N 34°37' E 134°56'.

Length 77 m; draft 5.4 m.

Type: Tanker. MMSI: 431501667.

Date/timePositionNaut miles runAvg speedWind from/ knotsBaromVisibWave heightAir tempDewpointWater temp
2016-May-24 10:03N 34°37' E 134°56'5 9.9
2016-May-24 09:33N 34°37' E 135°02'1010.0
2016-May-24 08:33N 34°36' E 135°14'9 9.2
2016-May-24 07:33N 34°36' E 135°25'2 1.6
2016-May-24 06:33N 34°34' E 135°26'0 0.0
2016-May-24 01:11N 34°34' E 135°26'1 1.7
2016-May-24 00:33N 34°35' E 135°25'5 5.3
2016-May-23 23:32N 34°36' E 135°19'0 0.0
2016-May-23 22:26N 34°36' E 135°19'0 0.0
2016-May-23 21:32N 34°36' E 135°19'0 0.0
2016-May-23 20:32N 34°36' E 135°19'0 0.1
2016-May-23 19:32N 34°36' E 135°19'0 0.0
2016-May-23 18:32N 34°36' E 135°19'0 0.0
2016-May-23 17:26N 34°36' E 135°19'0 0.0
2016-May-23 16:32N 34°36' E 135°19'0 0.0
2016-May-23 14:14N 34°36' E 135°19'0 0.0
2016-May-23 13:08N 34°36' E 135°19'0 0.0
2016-May-23 12:32N 34°36' E 135°19'0 0.0
2016-May-23 11:26N 34°36' E 135°19'0 0.0
2016-May-23 10:14N 34°36' E 135°19'0 0.0
2016-May-23 09:14N 34°36' E 135°19'0 0.0
2016-May-23 08:33N 34°36' E 135°19'2 1.3
2016-May-23 07:17N 34°35' E 135°18'1 1.4
2016-May-23 06:33N 34°35' E 135°16'1211.6
2016-May-23 05:33N 34°36' E 135°02'  

Dump ship's entire track history